sensor_id;sensor_type;location;lat;lon;timestamp;temperature;humidity
30459;DHT22;17254;50.976;7.034;2023-04-25T00:00:01;6.80;99.90
30459;DHT22;17254;50.976;7.034;2023-04-25T00:00:07;6.80;99.90
30459;DHT22;17254;50.976;7.034;2023-04-25T00:00:18;6.90;99.90
30459;DHT22;17254;50.976;7.034;2023-04-25T00:00:26;6.90;99.90
30459;DHT22;17254;50.976;7.034;2023-04-25T00:00:32;6.90;99.90
30459;DHT22;17254;50.976;7.034;2023-04-25T00:00:37;6.90;99.90
30459;DHT22;17254;50.976;7.034;2023-04-25T00:00:43;6.80;99.90
30459;DHT22;17254;50.976;7.034;2023-04-25T00:00:49;6.80;99.90
30459;DHT22;17254;50.976;7.034;2023-04-25T00:00:57;6.80;99.90
30459;DHT22;17254;50.976;7.034;2023-04-25T00:01:04;6.80;99.90
30459;DHT22;17254;50.976;7.034;2023-04-25T00:01:10;6.80;99.90
30459;DHT22;17254;50.976;7.034;2023-04-25T00:01:18;6.80;99.90
30459;DHT22;17254;50.976;7.034;2023-04-25T00:01:24;6.80;99.90
30459;DHT22;17254;50.976;7.034;2023-04-25T00:01:30;6.80;99.90
30459;DHT22;17254;50.976;7.034;2023-04-25T00:01:37;6.80;99.90
30459;DHT22;17254;50.976;7.034;2023-04-25T00:01:43;6.80;99.90
30459;DHT22;17254;50.976;7.034;2023-04-25T00:01:49;6.80;99.90
30459;DHT22;17254;50.976;7.034;2023-04-25T00:01:56;6.80;99.90
30459;DHT22;17254;50.976;7.034;2023-04-25T00:02:03;6.80;99.90
30459;DHT22;17254;50.976;7.034;2023-04-25T00:02:09;6.80;99.90
30459;DHT22;17254;50.976;7.034;2023-04-25T00:02:15;6.80;99.90
30459;DHT22;17254;50.976;7.034;2023-04-25T00:02:21;6.80;99.90
30459;DHT22;17254;50.976;7.034;2023-04-25T00:02:27;6.80;99.90
30459;DHT22;17254;50.976;7.034;2023-04-25T00:02:33;6.80;99.90
30459;DHT22;17254;50.976;7.034;2023-04-25T00:02:40;6.80;99.90
30459;DHT22;17254;50.976;7.034;2023-04-25T00:02:47;6.80;99.90
30459;DHT22;17254;50.976;7.034;2023-04-25T00:02:53;6.80;99.90
30459;DHT22;17254;50.976;7.034;2023-04-25T00:02:58;6.80;99.90
30459;DHT22;17254;50.976;7.034;2023-04-25T00:03:05;6.80;99.90
30459;DHT22;17254;50.976;7.034;2023-04-25T00:03:11;6.80;99.90
30459;DHT22;17254;50.976;7.034;2023-04-25T00:03:17;6.80;99.90
30459;DHT22;17254;50.976;7.034;2023-04-25T00:03:24;6.80;99.90
30459;DHT22;17254;50.976;7.034;2023-04-25T00:03:30;6.80;99.90
30459;DHT22;17254;50.976;7.034;2023-04-25T00:03:37;6.80;99.90
30459;DHT22;17254;50.976;7.034;2023-04-25T00:03:44;6.80;99.90
30459;DHT22;17254;50.976;7.034;2023-04-25T00:03:51;6.80;99.90
30459;DHT22;17254;50.976;7.034;2023-04-25T00:03:57;6.80;99.90
30459;DHT22;17254;50.976;7.034;2023-04-25T00:04:03;6.80;99.90
30459;DHT22;17254;50.976;7.034;2023-04-25T00:04:09;6.80;99.90
30459;DHT22;17254;50.976;7.034;2023-04-25T00:04:15;6.80;99.90
30459;DHT22;17254;50.976;7.034;2023-04-25T00:04:21;6.80;99.90
30459;DHT22;17254;50.976;7.034;2023-04-25T00:04:28;6.70;99.90
30459;DHT22;17254;50.976;7.034;2023-04-25T00:04:35;6.80;99.90
30459;DHT22;17254;50.976;7.034;2023-04-25T00:04:43;6.80;99.90
30459;DHT22;17254;50.976;7.034;2023-04-25T00:04:49;6.80;99.90
30459;DHT22;17254;50.976;7.034;2023-04-25T00:04:55;6.80;99.90
30459;DHT22;17254;50.976;7.034;2023-04-25T00:05:04;6.80;99.90
30459;DHT22;17254;50.976;7.034;2023-04-25T00:05:10;6.80;99.90
30459;DHT22;17254;50.976;7.034;2023-04-25T00:05:16;6.80;99.90
30459;DHT22;17254;50.976;7.034;2023-04-25T00:05:22;6.80;99.90
30459;DHT22;17254;50.976;7.034;2023-04-25T00:05:28;6.80;99.90
30459;DHT22;17254;50.976;7.034;2023-04-25T00:05:35;6.80;99.90
30459;DHT22;17254;50.976;7.034;2023-04-25T00:05:42;6.80;99.90
30459;DHT22;17254;50.976;7.034;2023-04-25T00:05:49;6.80;99.90
30459;DHT22;17254;50.976;7.034;2023-04-25T00:05:57;6.80;99.90
30459;DHT22;17254;50.976;7.034;2023-04-25T00:06:03;6.80;99.90
30459;DHT22;17254;50.976;7.034;2023-04-25T00:06:09;6.80;99.90
30459;DHT22;17254;50.976;7.034;2023-04-25T00:06:15;6.80;99.90
30459;DHT22;17254;50.976;7.034;2023-04-25T00:06:21;6.80;99.90
30459;DHT22;17254;50.976;7.034;2023-04-25T00:06:27;6.80;99.90
30459;DHT22;17254;50.976;7.034;2023-04-25T00:06:34;6.80;99.90
30459;DHT22;17254;50.976;7.034;2023-04-25T00:06:41;6.80;99.90
30459;DHT22;17254;50.976;7.034;2023-04-25T00:06:47;6.80;99.90
30459;DHT22;17254;50.976;7.034;2023-04-25T00:06:53;6.80;99.90
30459;DHT22;17254;50.976;7.034;2023-04-25T00:07:00;6.80;99.90
30459;DHT22;17254;50.976;7.034;2023-04-25T00:07:07;6.80;99.90
30459;DHT22;17254;50.976;7.034;2023-04-25T00:07:13;6.80;99.90
30459;DHT22;17254;50.976;7.034;2023-04-25T00:07:19;6.80;99.90
30459;DHT22;17254;50.976;7.034;2023-04-25T00:07:25;6.80;99.90
30459;DHT22;17254;50.976;7.034;2023-04-25T00:07:31;6.70;99.90
30459;DHT22;17254;50.976;7.034;2023-04-25T00:07:37;6.80;99.90
30459;DHT22;17254;50.976;7.034;2023-04-25T00:07:43;6.80;99.90
30459;DHT22;17254;50.976;7.034;2023-04-25T00:07:49;6.70;99.90
30459;DHT22;17254;50.976;7.034;2023-04-25T00:07:57;6.80;99.90
30459;DHT22;17254;50.976;7.034;2023-04-25T00:08:03;6.80;99.90
30459;DHT22;17254;50.976;7.034;2023-04-25T00:08:09;6.70;99.90
30459;DHT22;17254;50.976;7.034;2023-04-25T00:08:15;6.70;99.90
30459;DHT22;17254;50.976;7.034;2023-04-25T00:08:22;6.70;99.90
30459;DHT22;17254;50.976;7.034;2023-04-25T00:08:29;6.80;99.90
30459;DHT22;17254;50.976;7.034;2023-04-25T00:08:35;6.80;99.90
30459;DHT22;17254;50.976;7.034;2023-04-25T00:08:42;6.80;99.90
30459;DHT22;17254;50.976;7.034;2023-04-25T00:08:48;6.70;99.90
30459;DHT22;17254;50.976;7.034;2023-04-25T00:08:54;6.70;99.90
30459;DHT22;17254;50.976;7.034;2023-04-25T00:09:01;6.70;99.90
30459;DHT22;17254;50.976;7.034;2023-04-25T00:09:07;6.80;99.90
30459;DHT22;17254;50.976;7.034;2023-04-25T00:09:14;6.80;99.90
30459;DHT22;17254;50.976;7.034;2023-04-25T00:09:20;6.80;99.90
30459;DHT22;17254;50.976;7.034;2023-04-25T00:09:27;6.70;99.90
30459;DHT22;17254;50.976;7.034;2023-04-25T00:09:33;6.70;99.90
30459;DHT22;17254;50.976;7.034;2023-04-25T00:09:39;6.70;99.90
30459;DHT22;17254;50.976;7.034;2023-04-25T00:09:45;6.70;99.90
30459;DHT22;17254;50.976;7.034;2023-04-25T00:09:51;6.70;99.90
30459;DHT22;17254;50.976;7.034;2023-04-25T00:09:57;6.70;99.90
30459;DHT22;17254;50.976;7.034;2023-04-25T00:10:03;6.70;99.90
30459;DHT22;17254;50.976;7.034;2023-04-25T00:10:10;6.70;99.90
30459;DHT22;17254;50.976;7.034;2023-04-25T00:10:18;6.70;99.90
30459;DHT22;17254;50.976;7.034;2023-04-25T00:10:24;6.70;99.90
30459;DHT22;17254;50.976;7.034;2023-04-25T00:10:30;6.70;99.90
30459;DHT22;17254;50.976;7.034;2023-04-25T00:10:36;6.70;99.90
30459;DHT22;17254;50.976;7.034;2023-04-25T00:10:42;6.70;99.90
30459;DHT22;17254;50.976;7.034;2023-04-25T00:10:48;6.70;99.90
30459;DHT22;17254;50.976;7.034;2023-04-25T00:10:54;6.70;99.90
30459;DHT22;17254;50.976;7.034;2023-04-25T00:11:00;6.70;99.90
30459;DHT22;17254;50.976;7.034;2023-04-25T00:11:06;6.70;99.90
30459;DHT22;17254;50.976;7.034;2023-04-25T00:11:12;6.70;99.90
30459;DHT22;17254;50.976;7.034;2023-04-25T00:11:18;6.70;99.90
30459;DHT22;17254;50.976;7.034;2023-04-25T00:11:24;6.70;99.90
30459;DHT22;17254;50.976;7.034;2023-04-25T00:11:30;6.70;99.90
30459;DHT22;17254;50.976;7.034;2023-04-25T00:11:36;6.70;99.90
30459;DHT22;17254;50.976;7.034;2023-04-25T00:11:43;6.70;99.90
30459;DHT22;17254;50.976;7.034;2023-04-25T00:11:49;6.70;99.90
30459;DHT22;17254;50.976;7.034;2023-04-25T00:11:55;6.70;99.90
30459;DHT22;17254;50.976;7.034;2023-04-25T00:12:01;6.70;99.90
30459;DHT22;17254;50.976;7.034;2023-04-25T00:12:07;6.70;99.90
30459;DHT22;17254;50.976;7.034;2023-04-25T00:12:13;6.70;99.90
30459;DHT22;17254;50.976;7.034;2023-04-25T00:12:19;6.70;99.90
30459;DHT22;17254;50.976;7.034;2023-04-25T00:12:25;6.70;99.90
30459;DHT22;17254;50.976;7.034;2023-04-25T00:12:34;6.70;99.90
30459;DHT22;17254;50.976;7.034;2023-04-25T00:12:40;6.70;99.90
30459;DHT22;17254;50.976;7.034;2023-04-25T00:12:46;6.70;99.90
30459;DHT22;17254;50.976;7.034;2023-04-25T00:12:53;6.60;99.90
30459;DHT22;17254;50.976;7.034;2023-04-25T00:13:00;6.70;99.90
30459;DHT22;17254;50.976;7.034;2023-04-25T00:13:07;6.70;99.90
30459;DHT22;17254;50.976;7.034;2023-04-25T00:13:13;6.60;99.90
30459;DHT22;17254;50.976;7.034;2023-04-25T00:13:20;6.60;99.90
30459;DHT22;17254;50.976;7.034;2023-04-25T00:13:27;6.60;99.90
30459;DHT22;17254;50.976;7.034;2023-04-25T00:13:33;6.60;99.90
30459;DHT22;17254;50.976;7.034;2023-04-25T00:13:39;6.60;99.90
30459;DHT22;17254;50.976;7.034;2023-04-25T00:13:47;6.60;99.90
30459;DHT22;17254;50.976;7.034;2023-04-25T00:13:53;6.60;99.90
30459;DHT22;17254;50.976;7.034;2023-04-25T00:13:59;6.70;99.90
30459;DHT22;17254;50.976;7.034;2023-04-25T00:14:07;6.60;99.90
30459;DHT22;17254;50.976;7.034;2023-04-25T00:14:13;6.70;99.90
30459;DHT22;17254;50.976;7.034;2023-04-25T00:14:19;6.70;99.90
30459;DHT22;17254;50.976;7.034;2023-04-25T00:14:26;6.60;99.90
30459;DHT22;17254;50.976;7.034;2023-04-25T00:14:33;6.70;99.90
30459;DHT22;17254;50.976;7.034;2023-04-25T00:14:39;6.60;99.90
30459;DHT22;17254;50.976;7.034;2023-04-25T00:14:45;6.60;99.90
30459;DHT22;17254;50.976;7.034;2023-04-25T00:14:52;6.60;99.90
30459;DHT22;17254;50.976;7.034;2023-04-25T00:14:58;6.60;99.90
30459;DHT22;17254;50.976;7.034;2023-04-25T00:15:06;6.60;99.90
30459;DHT22;17254;50.976;7.034;2023-04-25T00:15:12;6.60;99.90
30459;DHT22;17254;50.976;7.034;2023-04-25T00:15:18;6.60;99.90
30459;DHT22;17254;50.976;7.034;2023-04-25T00:15:24;6.60;99.90
30459;DHT22;17254;50.976;7.034;2023-04-25T00:15:30;6.60;99.90
30459;DHT22;17254;50.976;7.034;2023-04-25T00:15:36;6.60;99.90
30459;DHT22;17254;50.976;7.034;2023-04-25T00:15:43;6.60;99.90
30459;DHT22;17254;50.976;7.034;2023-04-25T00:15:49;6.60;99.90
30459;DHT22;17254;50.976;7.034;2023-04-25T00:15:55;6.60;99.90
30459;DHT22;17254;50.976;7.034;2023-04-25T00:16:04;6.60;99.90
30459;DHT22;17254;50.976;7.034;2023-04-25T00:16:10;6.60;99.90
30459;DHT22;17254;50.976;7.034;2023-04-25T00:16:16;6.60;99.90
30459;DHT22;17254;50.976;7.034;2023-04-25T00:16:22;6.60;99.90
30459;DHT22;17254;50.976;7.034;2023-04-25T00:16:29;6.60;99.90
30459;DHT22;17254;50.976;7.034;2023-04-25T00:16:38;6.60;99.90
30459;DHT22;17254;50.976;7.034;2023-04-25T00:16:46;6.60;99.90
30459;DHT22;17254;50.976;7.034;2023-04-25T00:16:52;6.50;99.90
30459;DHT22;17254;50.976;7.034;2023-04-25T00:16:59;6.50;99.90
30459;DHT22;17254;50.976;7.034;2023-04-25T00:17:05;6.50;99.90
30459;DHT22;17254;50.976;7.034;2023-04-25T00:17:11;6.50;99.90
30459;DHT22;17254;50.976;7.034;2023-04-25T00:17:17;6.50;99.90
30459;DHT22;17254;50.976;7.034;2023-04-25T00:17:24;6.50;99.90
30459;DHT22;17254;50.976;7.034;2023-04-25T00:17:30;6.50;99.90
30459;DHT22;17254;50.976;7.034;2023-04-25T00:17:36;6.50;99.90
30459;DHT22;17254;50.976;7.034;2023-04-25T00:17:43;6.50;99.90
30459;DHT22;17254;50.976;7.034;2023-04-25T00:17:51;6.60;99.90
30459;DHT22;17254;50.976;7.034;2023-04-25T00:17:58;6.60;99.90
30459;DHT22;17254;50.976;7.034;2023-04-25T00:18:04;6.60;99.90
30459;DHT22;17254;50.976;7.034;2023-04-25T00:18:11;6.60;99.90
30459;DHT22;17254;50.976;7.034;2023-04-25T00:18:17;6.60;99.90
30459;DHT22;17254;50.976;7.034;2023-04-25T00:18:23;6.60;99.90
30459;DHT22;17254;50.976;7.034;2023-04-25T00:18:29;6.60;99.90
30459;DHT22;17254;50.976;7.034;2023-04-25T00:18:35;6.60;99.90
30459;DHT22;17254;50.976;7.034;2023-04-25T00:18:42;6.60;99.90
30459;DHT22;17254;50.976;7.034;2023-04-25T00:18:48;6.60;99.90
30459;DHT22;17254;50.976;7.034;2023-04-25T00:18:56;6.60;99.90
30459;DHT22;17254;50.976;7.034;2023-04-25T00:19:04;6.60;99.90
30459;DHT22;17254;50.976;7.034;2023-04-25T00:19:10;6.60;99.90
30459;DHT22;17254;50.976;7.034;2023-04-25T00:19:16;6.60;99.90
30459;DHT22;17254;50.976;7.034;2023-04-25T00:19:21;6.60;99.90
30459;DHT22;17254;50.976;7.034;2023-04-25T00:19:27;6.60;99.90
30459;DHT22;17254;50.976;7.034;2023-04-25T00:19:33;6.50;99.90
30459;DHT22;17254;50.976;7.034;2023-04-25T00:19:40;6.60;99.90
30459;DHT22;17254;50.976;7.034;2023-04-25T00:19:46;6.50;99.90
30459;DHT22;17254;50.976;7.034;2023-04-25T00:19:52;6.60;99.90
30459;DHT22;17254;50.976;7.034;2023-04-25T00:19:58;6.60;99.90
30459;DHT22;17254;50.976;7.034;2023-04-25T00:20:05;6.50;99.90
30459;DHT22;17254;50.976;7.034;2023-04-25T00:20:15;6.50;99.90
30459;DHT22;17254;50.976;7.034;2023-04-25T00:20:21;6.60;99.90
30459;DHT22;17254;50.976;7.034;2023-04-25T00:20:29;6.50;99.90
30459;DHT22;17254;50.976;7.034;2023-04-25T00:20:35;6.50;99.90
30459;DHT22;17254;50.976;7.034;2023-04-25T00:20:41;6.50;99.90
30459;DHT22;17254;50.976;7.034;2023-04-25T00:20:52;6.50;99.90
30459;DHT22;17254;50.976;7.034;2023-04-25T00:20:58;6.50;99.90
30459;DHT22;17254;50.976;7.034;2023-04-25T00:21:04;6.50;99.90
30459;DHT22;17254;50.976;7.034;2023-04-25T00:21:11;6.50;99.90
30459;DHT22;17254;50.976;7.034;2023-04-25T00:21:17;6.50;99.90
30459;DHT22;17254;50.976;7.034;2023-04-25T00:21:24;6.50;99.90
30459;DHT22;17254;50.976;7.034;2023-04-25T00:21:31;6.50;99.90
30459;DHT22;17254;50.976;7.034;2023-04-25T00:21:37;6.50;99.90
30459;DHT22;17254;50.976;7.034;2023-04-25T00:21:45;6.50;99.90
30459;DHT22;17254;50.976;7.034;2023-04-25T00:21:51;6.50;99.90
30459;DHT22;17254;50.976;7.034;2023-04-25T00:21:57;6.50;99.90
30459;DHT22;17254;50.976;7.034;2023-04-25T00:22:04;6.50;99.90
30459;DHT22;17254;50.976;7.034;2023-04-25T00:22:11;6.50;99.90
30459;DHT22;17254;50.976;7.034;2023-04-25T00:22:17;6.50;99.90
30459;DHT22;17254;50.976;7.034;2023-04-25T00:22:23;6.50;99.90
30459;DHT22;17254;50.976;7.034;2023-04-25T00:22:29;6.40;99.90
30459;DHT22;17254;50.976;7.034;2023-04-25T00:22:35;6.40;99.90
30459;DHT22;17254;50.976;7.034;2023-04-25T00:22:42;6.40;99.90
30459;DHT22;17254;50.976;7.034;2023-04-25T00:22:50;6.40;99.90
30459;DHT22;17254;50.976;7.034;2023-04-25T00:22:56;6.40;99.90
30459;DHT22;17254;50.976;7.034;2023-04-25T00:23:02;6.50;99.90
30459;DHT22;17254;50.976;7.034;2023-04-25T00:23:08;6.40;99.90
30459;DHT22;17254;50.976;7.034;2023-04-25T00:23:14;6.40;99.90
30459;DHT22;17254;50.976;7.034;2023-04-25T00:23:24;6.40;99.90
30459;DHT22;17254;50.976;7.034;2023-04-25T00:23:30;6.40;99.90
30459;DHT22;17254;50.976;7.034;2023-04-25T00:23:36;6.40;99.90
30459;DHT22;17254;50.976;7.034;2023-04-25T00:23:42;6.40;99.90
30459;DHT22;17254;50.976;7.034;2023-04-25T00:23:48;6.40;99.90
30459;DHT22;17254;50.976;7.034;2023-04-25T00:23:54;6.40;99.90
30459;DHT22;17254;50.976;7.034;2023-04-25T00:24:01;6.40;99.90
30459;DHT22;17254;50.976;7.034;2023-04-25T00:24:07;6.40;99.90
30459;DHT22;17254;50.976;7.034;2023-04-25T00:24:13;6.40;99.90
30459;DHT22;17254;50.976;7.034;2023-04-25T00:24:19;6.40;99.90
30459;DHT22;17254;50.976;7.034;2023-04-25T00:24:26;6.40;99.90
30459;DHT22;17254;50.976;7.034;2023-04-25T00:24:32;6.40;99.90
30459;DHT22;17254;50.976;7.034;2023-04-25T00:24:38;6.40;99.90
30459;DHT22;17254;50.976;7.034;2023-04-25T00:24:44;6.40;99.90
30459;DHT22;17254;50.976;7.034;2023-04-25T00:24:49;6.40;99.90
30459;DHT22;17254;50.976;7.034;2023-04-25T00:24:55;6.40;99.90
30459;DHT22;17254;50.976;7.034;2023-04-25T00:25:03;6.40;99.90
30459;DHT22;17254;50.976;7.034;2023-04-25T00:25:09;6.40;99.90
30459;DHT22;17254;50.976;7.034;2023-04-25T00:25:15;6.40;99.90
30459;DHT22;17254;50.976;7.034;2023-04-25T00:25:21;6.40;99.90
30459;DHT22;17254;50.976;7.034;2023-04-25T00:25:27;6.40;99.90
30459;DHT22;17254;50.976;7.034;2023-04-25T00:25:33;6.40;99.90
30459;DHT22;17254;50.976;7.034;2023-04-25T00:25:39;6.40;99.90
30459;DHT22;17254;50.976;7.034;2023-04-25T00:25:45;6.40;99.90
30459;DHT22;17254;50.976;7.034;2023-04-25T00:25:51;6.40;99.90
30459;DHT22;17254;50.976;7.034;2023-04-25T00:25:58;6.40;99.90
30459;DHT22;17254;50.976;7.034;2023-04-25T00:26:03;6.40;99.90
30459;DHT22;17254;50.976;7.034;2023-04-25T00:26:10;6.40;99.90
30459;DHT22;17254;50.976;7.034;2023-04-25T00:26:16;6.40;99.90
30459;DHT22;17254;50.976;7.034;2023-04-25T00:26:21;6.40;99.90
30459;DHT22;17254;50.976;7.034;2023-04-25T00:26:27;6.40;99.90
30459;DHT22;17254;50.976;7.034;2023-04-25T00:26:34;6.40;99.90
30459;DHT22;17254;50.976;7.034;2023-04-25T00:26:40;6.40;99.90
30459;DHT22;17254;50.976;7.034;2023-04-25T00:26:46;6.40;99.90
30459;DHT22;17254;50.976;7.034;2023-04-25T00:26:52;6.30;99.90
30459;DHT22;17254;50.976;7.034;2023-04-25T00:26:58;6.40;99.90
30459;DHT22;17254;50.976;7.034;2023-04-25T00:27:04;6.30;99.90
30459;DHT22;17254;50.976;7.034;2023-04-25T00:27:09;6.40;99.90
30459;DHT22;17254;50.976;7.034;2023-04-25T00:27:16;6.30;99.90
30459;DHT22;17254;50.976;7.034;2023-04-25T00:27:22;6.30;99.90
30459;DHT22;17254;50.976;7.034;2023-04-25T00:27:28;6.30;99.90
30459;DHT22;17254;50.976;7.034;2023-04-25T00:27:34;6.30;99.90
30459;DHT22;17254;50.976;7.034;2023-04-25T00:27:40;6.30;99.90
30459;DHT22;17254;50.976;7.034;2023-04-25T00:27:47;6.30;99.90
30459;DHT22;17254;50.976;7.034;2023-04-25T00:27:53;6.30;99.90
30459;DHT22;17254;50.976;7.034;2023-04-25T00:27:59;6.30;99.90
30459;DHT22;17254;50.976;7.034;2023-04-25T00:28:05;6.30;99.90
30459;DHT22;17254;50.976;7.034;2023-04-25T00:28:11;6.30;99.90
30459;DHT22;17254;50.976;7.034;2023-04-25T00:28:17;6.30;99.90
30459;DHT22;17254;50.976;7.034;2023-04-25T00:28:23;6.30;99.90
30459;DHT22;17254;50.976;7.034;2023-04-25T00:28:29;6.30;99.90
30459;DHT22;17254;50.976;7.034;2023-04-25T00:28:35;6.30;99.90
30459;DHT22;17254;50.976;7.034;2023-04-25T00:28:41;6.30;99.90
30459;DHT22;17254;50.976;7.034;2023-04-25T00:28:47;6.20;99.90
30459;DHT22;17254;50.976;7.034;2023-04-25T00:28:53;6.30;99.90
30459;DHT22;17254;50.976;7.034;2023-04-25T00:28:59;6.20;99.90
30459;DHT22;17254;50.976;7.034;2023-04-25T00:29:05;6.20;99.90
30459;DHT22;17254;50.976;7.034;2023-04-25T00:29:11;6.20;99.90
30459;DHT22;17254;50.976;7.034;2023-04-25T00:29:17;6.20;99.90
30459;DHT22;17254;50.976;7.034;2023-04-25T00:29:23;6.20;99.90
30459;DHT22;17254;50.976;7.034;2023-04-25T00:29:29;6.20;99.90
30459;DHT22;17254;50.976;7.034;2023-04-25T00:29:35;6.20;99.90
30459;DHT22;17254;50.976;7.034;2023-04-25T00:29:42;6.30;99.90
30459;DHT22;17254;50.976;7.034;2023-04-25T00:29:48;6.20;99.90
30459;DHT22;17254;50.976;7.034;2023-04-25T00:29:54;6.30;99.90
30459;DHT22;17254;50.976;7.034;2023-04-25T00:30:00;6.20;99.90
30459;DHT22;17254;50.976;7.034;2023-04-25T00:30:07;6.20;99.90
30459;DHT22;17254;50.976;7.034;2023-04-25T00:30:14;6.20;99.90
30459;DHT22;17254;50.976;7.034;2023-04-25T00:30:20;6.30;99.90
30459;DHT22;17254;50.976;7.034;2023-04-25T00:30:25;6.20;99.90
30459;DHT22;17254;50.976;7.034;2023-04-25T00:30:31;6.20;99.90
30459;DHT22;17254;50.976;7.034;2023-04-25T00:30:37;6.20;99.90
30459;DHT22;17254;50.976;7.034;2023-04-25T00:30:44;6.20;99.90
30459;DHT22;17254;50.976;7.034;2023-04-25T00:30:50;6.20;99.90
30459;DHT22;17254;50.976;7.034;2023-04-25T00:30:56;6.20;99.90
30459;DHT22;17254;50.976;7.034;2023-04-25T00:31:02;6.20;99.90
30459;DHT22;17254;50.976;7.034;2023-04-25T00:31:09;6.20;99.90
30459;DHT22;17254;50.976;7.034;2023-04-25T00:31:15;6.20;99.90
30459;DHT22;17254;50.976;7.034;2023-04-25T00:31:21;6.20;99.90
30459;DHT22;17254;50.976;7.034;2023-04-25T00:31:27;6.20;99.90
30459;DHT22;17254;50.976;7.034;2023-04-25T00:31:34;6.20;99.90
30459;DHT22;17254;50.976;7.034;2023-04-25T00:31:40;6.20;99.90
30459;DHT22;17254;50.976;7.034;2023-04-25T00:31:46;6.20;99.90
30459;DHT22;17254;50.976;7.034;2023-04-25T00:31:52;6.20;99.90
30459;DHT22;17254;50.976;7.034;2023-04-25T00:31:58;6.20;99.90
30459;DHT22;17254;50.976;7.034;2023-04-25T00:32:04;6.20;99.90
30459;DHT22;17254;50.976;7.034;2023-04-25T00:32:10;6.10;99.90
30459;DHT22;17254;50.976;7.034;2023-04-25T00:32:16;6.20;99.90
30459;DHT22;17254;50.976;7.034;2023-04-25T00:32:21;6.20;99.90
30459;DHT22;17254;50.976;7.034;2023-04-25T00:32:27;6.20;99.90
30459;DHT22;17254;50.976;7.034;2023-04-25T00:32:33;6.20;99.90
30459;DHT22;17254;50.976;7.034;2023-04-25T00:32:39;6.20;99.90
30459;DHT22;17254;50.976;7.034;2023-04-25T00:32:46;6.20;99.90
30459;DHT22;17254;50.976;7.034;2023-04-25T00:32:53;6.20;99.90
30459;DHT22;17254;50.976;7.034;2023-04-25T00:32:59;6.20;99.90
30459;DHT22;17254;50.976;7.034;2023-04-25T00:33:05;6.20;99.90
30459;DHT22;17254;50.976;7.034;2023-04-25T00:33:11;6.20;99.90
30459;DHT22;17254;50.976;7.034;2023-04-25T00:33:17;6.20;99.90
30459;DHT22;17254;50.976;7.034;2023-04-25T00:33:23;6.20;99.90
30459;DHT22;17254;50.976;7.034;2023-04-25T00:33:29;6.20;99.90
30459;DHT22;17254;50.976;7.034;2023-04-25T00:33:35;6.20;99.90
30459;DHT22;17254;50.976;7.034;2023-04-25T00:33:41;6.20;99.90
30459;DHT22;17254;50.976;7.034;2023-04-25T00:33:48;6.20;99.90
30459;DHT22;17254;50.976;7.034;2023-04-25T00:33:53;6.20;99.90
30459;DHT22;17254;50.976;7.034;2023-04-25T00:33:59;6.20;99.90
30459;DHT22;17254;50.976;7.034;2023-04-25T00:34:06;6.20;99.90
30459;DHT22;17254;50.976;7.034;2023-04-25T00:34:12;6.20;99.90
30459;DHT22;17254;50.976;7.034;2023-04-25T00:34:19;6.20;99.90
30459;DHT22;17254;50.976;7.034;2023-04-25T00:34:25;6.20;99.90
30459;DHT22;17254;50.976;7.034;2023-04-25T00:34:31;6.20;99.90
30459;DHT22;17254;50.976;7.034;2023-04-25T00:34:36;6.20;99.90
30459;DHT22;17254;50.976;7.034;2023-04-25T00:34:42;6.20;99.90
30459;DHT22;17254;50.976;7.034;2023-04-25T00:34:48;6.20;99.90
30459;DHT22;17254;50.976;7.034;2023-04-25T00:34:54;6.20;99.90
30459;DHT22;17254;50.976;7.034;2023-04-25T00:35:01;6.20;99.90
30459;DHT22;17254;50.976;7.034;2023-04-25T00:35:08;6.20;99.90
30459;DHT22;17254;50.976;7.034;2023-04-25T00:35:14;6.20;99.90
30459;DHT22;17254;50.976;7.034;2023-04-25T00:35:20;6.20;99.90
30459;DHT22;17254;50.976;7.034;2023-04-25T00:35:27;6.20;99.90
30459;DHT22;17254;50.976;7.034;2023-04-25T00:35:33;6.20;99.90
30459;DHT22;17254;50.976;7.034;2023-04-25T00:35:39;6.20;99.90
30459;DHT22;17254;50.976;7.034;2023-04-25T00:35:46;6.20;99.90
30459;DHT22;17254;50.976;7.034;2023-04-25T00:35:52;6.10;99.90
30459;DHT22;17254;50.976;7.034;2023-04-25T00:35:58;6.20;99.90
30459;DHT22;17254;50.976;7.034;2023-04-25T00:36:05;6.20;99.90
30459;DHT22;17254;50.976;7.034;2023-04-25T00:36:11;6.20;99.90
30459;DHT22;17254;50.976;7.034;2023-04-25T00:36:18;6.20;99.90
30459;DHT22;17254;50.976;7.034;2023-04-25T00:36:24;6.20;99.90
30459;DHT22;17254;50.976;7.034;2023-04-25T00:36:30;6.20;99.90
30459;DHT22;17254;50.976;7.034;2023-04-25T00:36:37;6.20;99.90
30459;DHT22;17254;50.976;7.034;2023-04-25T00:36:43;6.20;99.90
30459;DHT22;17254;50.976;7.034;2023-04-25T00:36:49;6.20;99.90
30459;DHT22;17254;50.976;7.034;2023-04-25T00:36:55;6.20;99.90
30459;DHT22;17254;50.976;7.034;2023-04-25T00:37:02;6.20;99.90
30459;DHT22;17254;50.976;7.034;2023-04-25T00:37:09;6.20;99.90
30459;DHT22;17254;50.976;7.034;2023-04-25T00:37:16;6.20;99.90
30459;DHT22;17254;50.976;7.034;2023-04-25T00:37:21;6.20;99.90
30459;DHT22;17254;50.976;7.034;2023-04-25T00:37:27;6.20;99.90
30459;DHT22;17254;50.976;7.034;2023-04-25T00:37:33;6.10;99.90
30459;DHT22;17254;50.976;7.034;2023-04-25T00:37:39;6.10;99.90
30459;DHT22;17254;50.976;7.034;2023-04-25T00:37:45;6.10;99.90
30459;DHT22;17254;50.976;7.034;2023-04-25T00:37:51;6.10;99.90
30459;DHT22;17254;50.976;7.034;2023-04-25T00:37:57;6.10;99.90
30459;DHT22;17254;50.976;7.034;2023-04-25T00:38:03;6.10;99.90
30459;DHT22;17254;50.976;7.034;2023-04-25T00:38:09;6.10;99.90
30459;DHT22;17254;50.976;7.034;2023-04-25T00:38:15;6.10;99.90
30459;DHT22;17254;50.976;7.034;2023-04-25T00:38:21;6.20;99.90
30459;DHT22;17254;50.976;7.034;2023-04-25T00:38:29;6.10;99.90
30459;DHT22;17254;50.976;7.034;2023-04-25T00:38:34;6.20;99.90
30459;DHT22;17254;50.976;7.034;2023-04-25T00:38:41;6.20;99.90
30459;DHT22;17254;50.976;7.034;2023-04-25T00:38:48;6.20;99.90
30459;DHT22;17254;50.976;7.034;2023-04-25T00:38:54;6.20;99.90
30459;DHT22;17254;50.976;7.034;2023-04-25T00:39:00;6.20;99.90
30459;DHT22;17254;50.976;7.034;2023-04-25T00:39:06;6.20;99.90
30459;DHT22;17254;50.976;7.034;2023-04-25T00:39:12;6.20;99.90
30459;DHT22;17254;50.976;7.034;2023-04-25T00:39:18;6.20;99.90
30459;DHT22;17254;50.976;7.034;2023-04-25T00:39:24;6.20;99.90
30459;DHT22;17254;50.976;7.034;2023-04-25T00:39:30;6.20;99.90
30459;DHT22;17254;50.976;7.034;2023-04-25T00:39:36;6.20;99.90
30459;DHT22;17254;50.976;7.034;2023-04-25T00:39:42;6.20;99.90
30459;DHT22;17254;50.976;7.034;2023-04-25T00:39:47;6.20;99.90
30459;DHT22;17254;50.976;7.034;2023-04-25T00:39:54;6.20;99.90
30459;DHT22;17254;50.976;7.034;2023-04-25T00:40:01;6.20;99.90
30459;DHT22;17254;50.976;7.034;2023-04-25T00:40:08;6.20;99.90
30459;DHT22;17254;50.976;7.034;2023-04-25T00:40:14;6.20;99.90
30459;DHT22;17254;50.976;7.034;2023-04-25T00:40:21;6.20;99.90
30459;DHT22;17254;50.976;7.034;2023-04-25T00:40:28;6.20;99.90
30459;DHT22;17254;50.976;7.034;2023-04-25T00:40:35;6.20;99.90
30459;DHT22;17254;50.976;7.034;2023-04-25T00:40:40;6.20;99.90
30459;DHT22;17254;50.976;7.034;2023-04-25T00:40:49;6.10;99.90